sensor_id;sensor_type;location;lat;lon;timestamp;temperature;humidity
13707;DHT22;6925;47.816;13.072;2023-04-06T00:01:58;5.00;49.70
13707;DHT22;6925;47.816;13.072;2023-04-06T00:04:28;5.00;49.70
13707;DHT22;6925;47.816;13.072;2023-04-06T00:07:09;4.90;49.90
13707;DHT22;6925;47.816;13.072;2023-04-06T00:09:50;5.00;50.20
13707;DHT22;6925;47.816;13.072;2023-04-06T00:12:31;5.00;50.20
13707;DHT22;6925;47.816;13.072;2023-04-06T00:15:07;5.00;50.10
13707;DHT22;6925;47.816;13.072;2023-04-06T00:17:42;5.00;50.00
13707;DHT22;6925;47.816;13.072;2023-04-06T00:20:28;4.90;50.00
13707;DHT22;6925;47.816;13.072;2023-04-06T00:23:18;4.90;50.00
13707;DHT22;6925;47.816;13.072;2023-04-06T00:25:53;4.80;50.10
13707;DHT22;6925;47.816;13.072;2023-04-06T00:28:34;4.60;49.70
13707;DHT22;6925;47.816;13.072;2023-04-06T00:31:05;4.40;49.60
13707;DHT22;6925;47.816;13.072;2023-04-06T00:33:41;4.20;49.90
13707;DHT22;6925;47.816;13.072;2023-04-06T00:36:13;4.10;50.20
13707;DHT22;6925;47.816;13.072;2023-04-06T00:38:55;4.20;50.60
13707;DHT22;6925;47.816;13.072;2023-04-06T00:41:36;4.30;50.40
13707;DHT22;6925;47.816;13.072;2023-04-06T00:44:05;4.30;50.30
13707;DHT22;6925;47.816;13.072;2023-04-06T00:46:34;4.20;50.00
13707;DHT22;6925;47.816;13.072;2023-04-06T00:49:02;4.30;50.20
13707;DHT22;6925;47.816;13.072;2023-04-06T00:51:29;4.30;50.60
13707;DHT22;6925;47.816;13.072;2023-04-06T00:53:56;4.30;50.90
13707;DHT22;6925;47.816;13.072;2023-04-06T00:56:24;4.30;50.90
13707;DHT22;6925;47.816;13.072;2023-04-06T00:58:52;4.30;50.80
13707;DHT22;6925;47.816;13.072;2023-04-06T01:01:19;4.30;51.00
13707;DHT22;6925;47.816;13.072;2023-04-06T01:03:48;4.20;51.40
13707;DHT22;6925;47.816;13.072;2023-04-06T01:06:16;4.10;51.30
13707;DHT22;6925;47.816;13.072;2023-04-06T01:08:43;4.00;51.50
13707;DHT22;6925;47.816;13.072;2023-04-06T01:11:10;4.00;51.50
13707;DHT22;6925;47.816;13.072;2023-04-06T01:13:38;3.90;51.40
13707;DHT22;6925;47.816;13.072;2023-04-06T01:16:06;3.90;51.50
13707;DHT22;6925;47.816;13.072;2023-04-06T01:18:33;3.80;51.50
13707;DHT22;6925;47.816;13.072;2023-04-06T01:21:03;3.80;51.80
13707;DHT22;6925;47.816;13.072;2023-04-06T01:23:33;3.80;52.00
13707;DHT22;6925;47.816;13.072;2023-04-06T01:26:00;3.80;51.80
13707;DHT22;6925;47.816;13.072;2023-04-06T01:28:28;3.70;51.70
13707;DHT22;6925;47.816;13.072;2023-04-06T01:30:55;3.80;52.00
13707;DHT22;6925;47.816;13.072;2023-04-06T01:33:22;3.90;52.00
13707;DHT22;6925;47.816;13.072;2023-04-06T01:35:50;3.90;51.80
13707;DHT22;6925;47.816;13.072;2023-04-06T01:38:18;3.80;51.80
13707;DHT22;6925;47.816;13.072;2023-04-06T01:40:47;3.80;52.00
13707;DHT22;6925;47.816;13.072;2023-04-06T01:43:14;3.80;52.00
13707;DHT22;6925;47.816;13.072;2023-04-06T01:45:42;3.80;51.80
13707;DHT22;6925;47.816;13.072;2023-04-06T01:48:09;3.90;52.20
13707;DHT22;6925;47.816;13.072;2023-04-06T01:50:36;3.90;52.00
13707;DHT22;6925;47.816;13.072;2023-04-06T01:53:04;4.00;52.30
13707;DHT22;6925;47.816;13.072;2023-04-06T01:55:31;3.90;52.30
13707;DHT22;6925;47.816;13.072;2023-04-06T01:58:00;4.00;52.20
13707;DHT22;6925;47.816;13.072;2023-04-06T02:00:30;4.00;51.90
13707;DHT22;6925;47.816;13.072;2023-04-06T02:02:57;4.00;52.10
13707;DHT22;6925;47.816;13.072;2023-04-06T02:05:25;4.00;52.10
13707;DHT22;6925;47.816;13.072;2023-04-06T02:07:52;4.00;51.90
13707;DHT22;6925;47.816;13.072;2023-04-06T02:10:19;4.00;52.30
13707;DHT22;6925;47.816;13.072;2023-04-06T02:12:47;4.10;52.20
13707;DHT22;6925;47.816;13.072;2023-04-06T02:15:16;4.00;52.30
13707;DHT22;6925;47.816;13.072;2023-04-06T02:17:43;4.00;52.10
13707;DHT22;6925;47.816;13.072;2023-04-06T02:20:10;4.00;52.40
13707;DHT22;6925;47.816;13.072;2023-04-06T02:22:39;3.90;52.20
13707;DHT22;6925;47.816;13.072;2023-04-06T02:25:06;3.90;52.50
13707;DHT22;6925;47.816;13.072;2023-04-06T02:27:34;3.90;52.70
13707;DHT22;6925;47.816;13.072;2023-04-06T02:30:01;3.90;52.80
13707;DHT22;6925;47.816;13.072;2023-04-06T02:32:30;3.90;52.60
13707;DHT22;6925;47.816;13.072;2023-04-06T02:35:00;3.90;52.60
13707;DHT22;6925;47.816;13.072;2023-04-06T02:37:28;3.80;52.80
13707;DHT22;6925;47.816;13.072;2023-04-06T02:39:55;3.90;52.90
13707;DHT22;6925;47.816;13.072;2023-04-06T02:42:22;3.90;53.00
13707;DHT22;6925;47.816;13.072;2023-04-06T02:44:50;3.90;52.90
13707;DHT22;6925;47.816;13.072;2023-04-06T02:47:17;3.90;52.70
13707;DHT22;6925;47.816;13.072;2023-04-06T02:49:46;3.80;52.90
13707;DHT22;6925;47.816;13.072;2023-04-06T02:52:13;3.80;53.00
13707;DHT22;6925;47.816;13.072;2023-04-06T02:54:41;3.80;53.10
13707;DHT22;6925;47.816;13.072;2023-04-06T02:57:08;3.80;53.10
13707;DHT22;6925;47.816;13.072;2023-04-06T02:59:35;3.70;53.00
13707;DHT22;6925;47.816;13.072;2023-04-06T03:02:03;3.70;52.80
13707;DHT22;6925;47.816;13.072;2023-04-06T03:04:30;3.70;53.10
13707;DHT22;6925;47.816;13.072;2023-04-06T03:06:59;3.60;53.30
13707;DHT22;6925;47.816;13.072;2023-04-06T03:09:26;3.60;53.50
13707;DHT22;6925;47.816;13.072;2023-04-06T03:11:53;3.60;53.70
13707;DHT22;6925;47.816;13.072;2023-04-06T03:14:21;3.60;53.50
13707;DHT22;6925;47.816;13.072;2023-04-06T03:16:49;3.60;53.70
13707;DHT22;6925;47.816;13.072;2023-04-06T03:19:16;3.60;53.60
13707;DHT22;6925;47.816;13.072;2023-04-06T03:21:43;3.60;53.60
13707;DHT22;6925;47.816;13.072;2023-04-06T03:24:12;3.60;53.60
13707;DHT22;6925;47.816;13.072;2023-04-06T03:26:40;3.50;53.70
13707;DHT22;6925;47.816;13.072;2023-04-06T03:29:07;3.50;53.70
13707;DHT22;6925;47.816;13.072;2023-04-06T03:31:35;3.50;53.90
13707;DHT22;6925;47.816;13.072;2023-04-06T03:34:03;3.50;53.90
13707;DHT22;6925;47.816;13.072;2023-04-06T03:36:30;3.50;54.00
13707;DHT22;6925;47.816;13.072;2023-04-06T03:38:57;3.50;53.80
13707;DHT22;6925;47.816;13.072;2023-04-06T03:41:26;3.50;53.90
13707;DHT22;6925;47.816;13.072;2023-04-06T03:43:53;3.50;53.90
13707;DHT22;6925;47.816;13.072;2023-04-06T03:46:21;3.50;53.80
13707;DHT22;6925;47.816;13.072;2023-04-06T03:48:49;3.40;53.90
13707;DHT22;6925;47.816;13.072;2023-04-06T03:51:16;3.30;54.00
13707;DHT22;6925;47.816;13.072;2023-04-06T03:53:43;3.30;54.20
13707;DHT22;6925;47.816;13.072;2023-04-06T03:56:10;3.30;54.30
13707;DHT22;6925;47.816;13.072;2023-04-06T03:58:39;3.30;54.30
13707;DHT22;6925;47.816;13.072;2023-04-06T04:01:06;3.30;54.50
13707;DHT22;6925;47.816;13.072;2023-04-06T04:03:34;3.40;54.40
13707;DHT22;6925;47.816;13.072;2023-04-06T04:06:02;3.40;54.20
13707;DHT22;6925;47.816;13.072;2023-04-06T04:08:29;3.40;54.30
13707;DHT22;6925;47.816;13.072;2023-04-06T04:10:56;3.30;54.30
13707;DHT22;6925;47.816;13.072;2023-04-06T04:13:24;3.30;54.30
13707;DHT22;6925;47.816;13.072;2023-04-06T04:15:53;3.20;54.30
13707;DHT22;6925;47.816;13.072;2023-04-06T04:18:20;3.20;54.50
13707;DHT22;6925;47.816;13.072;2023-04-06T04:20:48;3.30;54.50
13707;DHT22;6925;47.816;13.072;2023-04-06T04:23:15;3.40;54.30
13707;DHT22;6925;47.816;13.072;2023-04-06T04:26:01;3.40;54.40
13707;DHT22;6925;47.816;13.072;2023-04-06T04:28:42;3.30;54.30
13707;DHT22;6925;47.816;13.072;2023-04-06T04:31:11;3.40;55.00
13707;DHT22;6925;47.816;13.072;2023-04-06T04:33:38;3.30;54.40
13707;DHT22;6925;47.816;13.072;2023-04-06T04:36:06;3.30;54.50
13707;DHT22;6925;47.816;13.072;2023-04-06T04:38:34;3.30;54.20
13707;DHT22;6925;47.816;13.072;2023-04-06T04:41:02;3.30;54.30
13707;DHT22;6925;47.816;13.072;2023-04-06T04:43:35;3.30;54.40
13707;DHT22;6925;47.816;13.072;2023-04-06T04:46:06;3.40;54.30
13707;DHT22;6925;47.816;13.072;2023-04-06T04:48:35;3.40;54.30
13707;DHT22;6925;47.816;13.072;2023-04-06T04:51:03;3.30;54.30
13707;DHT22;6925;47.816;13.072;2023-04-06T04:53:32;3.30;54.50
13707;DHT22;6925;47.816;13.072;2023-04-06T04:55:59;3.40;54.50
13707;DHT22;6925;47.816;13.072;2023-04-06T04:58:27;3.30;54.40
13707;DHT22;6925;47.816;13.072;2023-04-06T05:00:56;3.30;54.50
13707;DHT22;6925;47.816;13.072;2023-04-06T05:03:24;3.40;54.70
13707;DHT22;6925;47.816;13.072;2023-04-06T05:05:54;3.40;54.50
13707;DHT22;6925;47.816;13.072;2023-04-06T05:08:22;3.40;54.70
13707;DHT22;6925;47.816;13.072;2023-04-06T05:10:50;3.40;54.70
13707;DHT22;6925;47.816;13.072;2023-04-06T05:13:17;3.30;54.60
13707;DHT22;6925;47.816;13.072;2023-04-06T05:15:44;3.30;54.90
13707;DHT22;6925;47.816;13.072;2023-04-06T05:18:12;3.20;54.90
13707;DHT22;6925;47.816;13.072;2023-04-06T05:20:39;3.20;55.30
13707;DHT22;6925;47.816;13.072;2023-04-06T05:23:08;3.30;55.40
13707;DHT22;6925;47.816;13.072;2023-04-06T05:25:36;3.20;55.50
13707;DHT22;6925;47.816;13.072;2023-04-06T05:28:03;3.20;55.50
13707;DHT22;6925;47.816;13.072;2023-04-06T05:30:31;3.30;55.60
13707;DHT22;6925;47.816;13.072;2023-04-06T05:33:01;3.30;55.30
13707;DHT22;6925;47.816;13.072;2023-04-06T05:35:28;3.40;55.30
13707;DHT22;6925;47.816;13.072;2023-04-06T05:37:56;3.40;55.30
13707;DHT22;6925;47.816;13.072;2023-04-06T05:40:25;3.50;55.40
13707;DHT22;6925;47.816;13.072;2023-04-06T05:42:53;3.50;55.30
13707;DHT22;6925;47.816;13.072;2023-04-06T05:45:21;3.50;55.20
13707;DHT22;6925;47.816;13.072;2023-04-06T05:47:48;3.50;55.10
13707;DHT22;6925;47.816;13.072;2023-04-06T05:50:15;3.60;55.20
13707;DHT22;6925;47.816;13.072;2023-04-06T05:52:43;3.60;55.40
13707;DHT22;6925;47.816;13.072;2023-04-06T05:55:12;3.60;55.30
13707;DHT22;6925;47.816;13.072;2023-04-06T05:57:40;3.60;55.20
13707;DHT22;6925;47.816;13.072;2023-04-06T06:00:09;3.60;55.40
13707;DHT22;6925;47.816;13.072;2023-04-06T06:02:37;3.60;55.60
13707;DHT22;6925;47.816;13.072;2023-04-06T06:05:14;3.70;55.70
13707;DHT22;6925;47.816;13.072;2023-04-06T06:07:41;3.70;55.70
13707;DHT22;6925;47.816;13.072;2023-04-06T06:10:12;3.80;55.90
13707;DHT22;6925;47.816;13.072;2023-04-06T06:12:41;3.90;55.60
13707;DHT22;6925;47.816;13.072;2023-04-06T06:15:09;3.90;55.50
13707;DHT22;6925;47.816;13.072;2023-04-06T06:17:36;3.90;55.40
13707;DHT22;6925;47.816;13.072;2023-04-06T06:20:05;4.00;55.40
13707;DHT22;6925;47.816;13.072;2023-04-06T06:22:33;4.00;55.40
13707;DHT22;6925;47.816;13.072;2023-04-06T06:25:00;4.00;55.00
13707;DHT22;6925;47.816;13.072;2023-04-06T06:27:28;4.00;55.10
13707;DHT22;6925;47.816;13.072;2023-04-06T06:29:56;4.10;55.20
13707;DHT22;6925;47.816;13.072;2023-04-06T06:32:24;4.10;55.20
13707;DHT22;6925;47.816;13.072;2023-04-06T06:34:51;4.10;55.20
13707;DHT22;6925;47.816;13.072;2023-04-06T06:37:18;4.00;55.10
13707;DHT22;6925;47.816;13.072;2023-04-06T06:39:46;4.10;55.40
13707;DHT22;6925;47.816;13.072;2023-04-06T06:42:13;4.10;55.20
13707;DHT22;6925;47.816;13.072;2023-04-06T06:44:40;4.10;55.40
13707;DHT22;6925;47.816;13.072;2023-04-06T06:47:09;4.20;55.60
13707;DHT22;6925;47.816;13.072;2023-04-06T06:52:14;4.20;54.90
13707;DHT22;6925;47.816;13.072;2023-04-06T06:54:41;4.30;54.80
13707;DHT22;6925;47.816;13.072;2023-04-06T06:57:09;4.20;55.30
13707;DHT22;6925;47.816;13.072;2023-04-06T06:59:36;4.20;54.80
13707;DHT22;6925;47.816;13.072;2023-04-06T07:02:03;4.20;55.00
13707;DHT22;6925;47.816;13.072;2023-04-06T07:04:32;4.30;55.20
13707;DHT22;6925;47.816;13.072;2023-04-06T07:07:00;4.40;55.40
13707;DHT22;6925;47.816;13.072;2023-04-06T07:09:27;4.50;55.10
13707;DHT22;6925;47.816;13.072;2023-04-06T07:11:54;4.60;55.20
13707;DHT22;6925;47.816;13.072;2023-04-06T07:14:24;4.70;55.20
13707;DHT22;6925;47.816;13.072;2023-04-06T07:16:52;4.70;55.20
13707;DHT22;6925;47.816;13.072;2023-04-06T07:19:19;4.70;54.80
13707;DHT22;6925;47.816;13.072;2023-04-06T07:21:48;4.60;54.70
13707;DHT22;6925;47.816;13.072;2023-04-06T07:24:16;4.50;55.20
13707;DHT22;6925;47.816;13.072;2023-04-06T07:26:43;4.50;55.40
13707;DHT22;6925;47.816;13.072;2023-04-06T07:29:10;4.50;55.40
13707;DHT22;6925;47.816;13.072;2023-04-06T07:31:39;4.60;55.60
13707;DHT22;6925;47.816;13.072;2023-04-06T07:34:06;4.70;55.20
13707;DHT22;6925;47.816;13.072;2023-04-06T07:36:33;4.90;56.00
13707;DHT22;6925;47.816;13.072;2023-04-06T07:39:02;5.10;56.10
13707;DHT22;6925;47.816;13.072;2023-04-06T07:41:29;5.30;54.90
13707;DHT22;6925;47.816;13.072;2023-04-06T07:43:56;5.30;54.90
13707;DHT22;6925;47.816;13.072;2023-04-06T07:46:24;5.40;54.70
13707;DHT22;6925;47.816;13.072;2023-04-06T07:48:52;5.40;54.20
13707;DHT22;6925;47.816;13.072;2023-04-06T07:51:20;5.40;54.60
13707;DHT22;6925;47.816;13.072;2023-04-06T08:00:33;5.90;54.50
13707;DHT22;6925;47.816;13.072;2023-04-06T08:03:05;6.00;54.00
13707;DHT22;6925;47.816;13.072;2023-04-06T08:05:37;6.00;53.60
13707;DHT22;6925;47.816;13.072;2023-04-06T08:08:04;6.00;53.40
13707;DHT22;6925;47.816;13.072;2023-04-06T08:13:35;6.00;52.90
13707;DHT22;6925;47.816;13.072;2023-04-06T08:16:06;6.00;53.00
13707;DHT22;6925;47.816;13.072;2023-04-06T08:21:49;6.00;51.50
13707;DHT22;6925;47.816;13.072;2023-04-06T08:24:17;5.90;50.50
13707;DHT22;6925;47.816;13.072;2023-04-06T08:26:47;6.00;50.80
13707;DHT22;6925;47.816;13.072;2023-04-06T08:29:17;6.20;50.60
13707;DHT22;6925;47.816;13.072;2023-04-06T08:31:46;6.40;49.90
13707;DHT22;6925;47.816;13.072;2023-04-06T08:34:15;6.50;49.70
13707;DHT22;6925;47.816;13.072;2023-04-06T08:36:42;6.70;48.90
13707;DHT22;6925;47.816;13.072;2023-04-06T08:39:09;6.80;48.10
13707;DHT22;6925;47.816;13.072;2023-04-06T08:41:37;7.00;48.20
13707;DHT22;6925;47.816;13.072;2023-04-06T08:44:04;7.20;47.40
13707;DHT22;6925;47.816;13.072;2023-04-06T08:46:32;7.30;48.40
13707;DHT22;6925;47.816;13.072;2023-04-06T08:49:02;7.60;49.20
13707;DHT22;6925;47.816;13.072;2023-04-06T08:51:32;7.90;48.10
13707;DHT22;6925;47.816;13.072;2023-04-06T08:54:00;8.20;49.70
13707;DHT22;6925;47.816;13.072;2023-04-06T08:56:28;8.50;49.20
13707;DHT22;6925;47.816;13.072;2023-04-06T08:58:56;8.70;47.40
13707;DHT22;6925;47.816;13.072;2023-04-06T09:01:26;8.90;47.30
13707;DHT22;6925;47.816;13.072;2023-04-06T09:03:58;9.10;48.30
13707;DHT22;6925;47.816;13.072;2023-04-06T09:06:27;9.40;48.40
13707;DHT22;6925;47.816;13.072;2023-04-06T09:08:54;9.60;47.60
13707;DHT22;6925;47.816;13.072;2023-04-06T09:14:39;10.20;48.00
13707;DHT22;6925;47.816;13.072;2023-04-06T09:17:06;10.40;46.60
13707;DHT22;6925;47.816;13.072;2023-04-06T09:22:16;10.70;44.70
13707;DHT22;6925;47.816;13.072;2023-04-06T09:24:45;10.70;42.70
13707;DHT22;6925;47.816;13.072;2023-04-06T09:27:14;10.70;43.40
13707;DHT22;6925;47.816;13.072;2023-04-06T09:29:42;10.70;42.30
13707;DHT22;6925;47.816;13.072;2023-04-06T09:32:11;10.80;41.90
13707;DHT22;6925;47.816;13.072;2023-04-06T09:34:42;11.00;41.70
13707;DHT22;6925;47.816;13.072;2023-04-06T09:37:16;11.10;40.00
13707;DHT22;6925;47.816;13.072;2023-04-06T09:39:44;11.10;40.00
13707;DHT22;6925;47.816;13.072;2023-04-06T09:42:23;11.10;40.30
13707;DHT22;6925;47.816;13.072;2023-04-06T09:44:54;11.30;41.00
13707;DHT22;6925;47.816;13.072;2023-04-06T09:47:22;11.40;41.50
13707;DHT22;6925;47.816;13.072;2023-04-06T09:49:51;11.60;40.20
13707;DHT22;6925;47.816;13.072;2023-04-06T09:52:25;11.90;38.40
13707;DHT22;6925;47.816;13.072;2023-04-06T09:55:05;11.90;39.70
13707;DHT22;6925;47.816;13.072;2023-04-06T09:57:40;12.00;38.60
13707;DHT22;6925;47.816;13.072;2023-04-06T10:00:14;12.20;38.40
13707;DHT22;6925;47.816;13.072;2023-04-06T10:05:41;12.30;35.20
13707;DHT22;6925;47.816;13.072;2023-04-06T10:08:11;12.20;35.10
13707;DHT22;6925;47.816;13.072;2023-04-06T10:10:40;12.30;34.50
13707;DHT22;6925;47.816;13.072;2023-04-06T10:13:10;12.40;36.20
13707;DHT22;6925;47.816;13.072;2023-04-06T10:15:38;12.70;35.80
13707;DHT22;6925;47.816;13.072;2023-04-06T10:18:06;12.90;35.60
13707;DHT22;6925;47.816;13.072;2023-04-06T10:20:38;13.10;36.60
13707;DHT22;6925;47.816;13.072;2023-04-06T10:23:26;13.40;36.70
13707;DHT22;6925;47.816;13.072;2023-04-06T10:25:57;13.70;35.30
13707;DHT22;6925;47.816;13.072;2023-04-06T10:28:31;13.80;35.40
13707;DHT22;6925;47.816;13.072;2023-04-06T10:31:05;14.10;35.20
13707;DHT22;6925;47.816;13.072;2023-04-06T10:33:33;14.30;33.70
13707;DHT22;6925;47.816;13.072;2023-04-06T10:36:09;14.30;33.60
13707;DHT22;6925;47.816;13.072;2023-04-06T10:39:12;14.40;33.50
13707;DHT22;6925;47.816;13.072;2023-04-06T10:47:39;14.40;31.80
13707;DHT22;6925;47.816;13.072;2023-04-06T10:50:07;14.50;34.00
13707;DHT22;6925;47.816;13.072;2023-04-06T11:03:00;15.80;35.10
13707;DHT22;6925;47.816;13.072;2023-04-06T11:05:28;16.10;33.20
13707;DHT22;6925;47.816;13.072;2023-04-06T11:07:56;16.30;32.00
13707;DHT22;6925;47.816;13.072;2023-04-06T11:10:23;16.40;30.40
13707;DHT22;6925;47.816;13.072;2023-04-06T11:12:54;16.30;30.20
13707;DHT22;6925;47.816;13.072;2023-04-06T11:15:21;16.30;31.20
13707;DHT22;6925;47.816;13.072;2023-04-06T11:17:49;16.40;30.00
13707;DHT22;6925;47.816;13.072;2023-04-06T11:20:18;16.30;30.80
13707;DHT22;6925;47.816;13.072;2023-04-06T11:26:10;16.50;30.90
13707;DHT22;6925;47.816;13.072;2023-04-06T11:28:38;16.70;30.80
13707;DHT22;6925;47.816;13.072;2023-04-06T11:31:06;16.90;30.80
13707;DHT22;6925;47.816;13.072;2023-04-06T11:33:36;17.00;29.20
13707;DHT22;6925;47.816;13.072;2023-04-06T11:36:17;16.80;27.90
13707;DHT22;6925;47.816;13.072;2023-04-06T11:39:18;16.60;28.80
13707;DHT22;6925;47.816;13.072;2023-04-06T11:41:54;16.50;29.20
13707;DHT22;6925;47.816;13.072;2023-04-06T11:44:31;16.60;29.60
13707;DHT22;6925;47.816;13.072;2023-04-06T11:46:59;16.70;28.70
13707;DHT22;6925;47.816;13.072;2023-04-06T11:49:28;16.70;28.30
13707;DHT22;6925;47.816;13.072;2023-04-06T11:51:57;16.60;28.70
13707;DHT22;6925;47.816;13.072;2023-04-06T11:54:32;16.50;29.20
13707;DHT22;6925;47.816;13.072;2023-04-06T11:57:05;16.50;29.30
13707;DHT22;6925;47.816;13.072;2023-04-06T11:59:33;16.50;28.40
13707;DHT22;6925;47.816;13.072;2023-04-06T12:02:01;16.30;28.80
13707;DHT22;6925;47.816;13.072;2023-04-06T12:04:29;16.30;29.70
13707;DHT22;6925;47.816;13.072;2023-04-06T12:06:58;16.50;30.00
13707;DHT22;6925;47.816;13.072;2023-04-06T12:09:25;16.80;29.60
13707;DHT22;6925;47.816;13.072;2023-04-06T12:11:52;16.90;28.30
13707;DHT22;6925;47.816;13.072;2023-04-06T12:14:20;16.90;28.50
13707;DHT22;6925;47.816;13.072;2023-04-06T12:16:47;17.00;29.20
13707;DHT22;6925;47.816;13.072;2023-04-06T12:19:15;17.20;29.20
13707;DHT22;6925;47.816;13.072;2023-04-06T12:21:47;17.40;28.30
13707;DHT22;6925;47.816;13.072;2023-04-06T12:24:19;17.70;29.50
13707;DHT22;6925;47.816;13.072;2023-04-06T12:26:47;18.00;29.60
13707;DHT22;6925;47.816;13.072;2023-04-06T12:29:14;18.30;27.90
13707;DHT22;6925;47.816;13.072;2023-04-06T12:31:42;18.20;27.90
13707;DHT22;6925;47.816;13.072;2023-04-06T12:34:12;18.40;28.50
13707;DHT22;6925;47.816;13.072;2023-04-06T12:36:39;18.60;29.60
13707;DHT22;6925;47.816;13.072;2023-04-06T12:39:12;18.80;29.60
13707;DHT22;6925;47.816;13.072;2023-04-06T12:41:44;19.00;29.50
13707;DHT22;6925;47.816;13.072;2023-04-06T12:44:11;19.10;29.20
13707;DHT22;6925;47.816;13.072;2023-04-06T12:46:41;19.00;27.80
13707;DHT22;6925;47.816;13.072;2023-04-06T12:49:10;18.80;27.50
13707;DHT22;6925;47.816;13.072;2023-04-06T12:51:42;18.90;28.20
13707;DHT22;6925;47.816;13.072;2023-04-06T12:54:14;18.90;26.30
13707;DHT22;6925;47.816;13.072;2023-04-06T12:56:47;19.00;28.30
13707;DHT22;6925;47.816;13.072;2023-04-06T12:59:21;18.90;26.70
13707;DHT22;6925;47.816;13.072;2023-04-06T13:05:14;19.20;27.60
13707;DHT22;6925;47.816;13.072;2023-04-06T13:07:47;19.10;26.20
13707;DHT22;6925;47.816;13.072;2023-04-06T13:10:15;18.90;25.30
13707;DHT22;6925;47.816;13.072;2023-04-06T13:12:44;18.80;26.40
13707;DHT22;6925;47.816;13.072;2023-04-06T13:15:20;18.70;26.10
13707;DHT22;6925;47.816;13.072;2023-04-06T13:17:52;18.90;27.70
13707;DHT22;6925;47.816;13.072;2023-04-06T13:20:22;19.30;28.00
13707;DHT22;6925;47.816;13.072;2023-04-06T13:22:50;19.70;27.90
13707;DHT22;6925;47.816;13.072;2023-04-06T13:25:18;19.80;25.60
13707;DHT22;6925;47.816;13.072;2023-04-06T13:27:49;20.00;27.30
13707;DHT22;6925;47.816;13.072;2023-04-06T13:30:28;20.10;26.10
13707;DHT22;6925;47.816;13.072;2023-04-06T13:32:56;20.00;25.10
13707;DHT22;6925;47.816;13.072;2023-04-06T13:35:23;20.00;26.10
13707;DHT22;6925;47.816;13.072;2023-04-06T13:37:50;20.10;26.00
13707;DHT22;6925;47.816;13.072;2023-04-06T13:40:18;19.80;24.20
13707;DHT22;6925;47.816;13.072;2023-04-06T13:42:48;19.40;25.40
13707;DHT22;6925;47.816;13.072;2023-04-06T13:45:16;19.30;25.10
13707;DHT22;6925;47.816;13.072;2023-04-06T13:47:44;19.30;25.00
13707;DHT22;6925;47.816;13.072;2023-04-06T13:50:14;19.20;24.50
13707;DHT22;6925;47.816;13.072;2023-04-06T13:52:45;19.10;25.20
13707;DHT22;6925;47.816;13.072;2023-04-06T13:55:18;19.40;25.70
13707;DHT22;6925;47.816;13.072;2023-04-06T13:57:53;19.60;25.50
13707;DHT22;6925;47.816;13.072;2023-04-06T14:00:26;19.60;24.90
13707;DHT22;6925;47.816;13.072;2023-04-06T14:02:54;19.50;24.70
13707;DHT22;6925;47.816;13.072;2023-04-06T14:05:22;19.40;25.70
13707;DHT22;6925;47.816;13.072;2023-04-06T14:07:49;19.50;25.50
13707;DHT22;6925;47.816;13.072;2023-04-06T14:10:17;19.50;25.40
13707;DHT22;6925;47.816;13.072;2023-04-06T14:12:55;19.50;25.30
13707;DHT22;6925;47.816;13.072;2023-04-06T14:15:28;19.40;25.30
13707;DHT22;6925;47.816;13.072;2023-04-06T14:17:56;19.60;25.90
13707;DHT22;6925;47.816;13.072;2023-04-06T14:20:23;19.90;25.70
13707;DHT22;6925;47.816;13.072;2023-04-06T14:22:51;19.80;24.40
13707;DHT22;6925;47.816;13.072;2023-04-06T14:25:26;19.50;24.20
13707;DHT22;6925;47.816;13.072;2023-04-06T14:28:01;19.30;24.40
13707;DHT22;6925;47.816;13.072;2023-04-06T14:30:35;19.30;24.60
13707;DHT22;6925;47.816;13.072;2023-04-06T14:33:04;19.20;25.00
13707;DHT22;6925;47.816;13.072;2023-04-06T14:35:33;19.20;25.50
13707;DHT22;6925;47.816;13.072;2023-04-06T14:38:03;19.50;26.90
13707;DHT22;6925;47.816;13.072;2023-04-06T14:40:33;19.80;26.40
13707;DHT22;6925;47.816;13.072;2023-04-06T14:43:03;20.00;26.10
13707;DHT22;6925;47.816;13.072;2023-04-06T14:45:33;20.20;25.00
13707;DHT22;6925;47.816;13.072;2023-04-06T14:48:00;20.20;25.60
13707;DHT22;6925;47.816;13.072;2023-04-06T14:50:27;20.20;24.70
13707;DHT22;6925;47.816;13.072;2023-04-06T14:52:55;20.10;24.70
13707;DHT22;6925;47.816;13.072;2023-04-06T14:55:22;19.70;24.00
13707;DHT22;6925;47.816;13.072;2023-04-06T14:57:49;19.30;24.20
13707;DHT22;6925;47.816;13.072;2023-04-06T15:00:20;19.00;25.00
13707;DHT22;6925;47.816;13.072;2023-04-06T15:02:48;19.10;25.40
13707;DHT22;6925;47.816;13.072;2023-04-06T15:05:15;19.20;24.90
13707;DHT22;6925;47.816;13.072;2023-04-06T15:07:42;19.20;24.70
13707;DHT22;6925;47.816;13.072;2023-04-06T15:10:10;19.30;25.70
13707;DHT22;6925;47.816;13.072;2023-04-06T15:12:38;19.40;25.40
13707;DHT22;6925;47.816;13.072;2023-04-06T15:15:06;19.10;24.60
13707;DHT22;6925;47.816;13.072;2023-04-06T15:17:35;18.60;24.40
13707;DHT22;6925;47.816;13.072;2023-04-06T15:20:02;18.30;25.40
13707;DHT22;6925;47.816;13.072;2023-04-06T15:22:29;18.40;25.80
13707;DHT22;6925;47.816;13.072;2023-04-06T15:24:57;18.50;25.40
13707;DHT22;6925;47.816;13.072;2023-04-06T15:27:24;18.60;26.80
13707;DHT22;6925;47.816;13.072;2023-04-06T15:29:51;18.90;26.70
13707;DHT22;6925;47.816;13.072;2023-04-06T15:32:19;18.90;25.50
13707;DHT22;6925;47.816;13.072;2023-04-06T15:34:48;18.60;24.50
13707;DHT22;6925;47.816;13.072;2023-04-06T15:37:15;18.10;24.80
13707;DHT22;6925;47.816;13.072;2023-04-06T15:39:42;18.00;26.00
13707;DHT22;6925;47.816;13.072;2023-04-06T15:42:09;18.00;26.60
13707;DHT22;6925;47.816;13.072;2023-04-06T15:44:37;18.00;25.70
13707;DHT22;6925;47.816;13.072;2023-04-06T15:47:03;17.70;25.50
13707;DHT22;6925;47.816;13.072;2023-04-06T15:49:31;17.70;26.10
13707;DHT22;6925;47.816;13.072;2023-04-06T15:52:01;17.70;26.20
13707;DHT22;6925;47.816;13.072;2023-04-06T15:54:36;17.50;25.80
13707;DHT22;6925;47.816;13.072;2023-04-06T15:57:10;17.20;25.50
13707;DHT22;6925;47.816;13.072;2023-04-06T15:59:39;16.80;26.00
13707;DHT22;6925;47.816;13.072;2023-04-06T16:02:06;16.70;26.30
13707;DHT22;6925;47.816;13.072;2023-04-06T16:04:33;16.70;26.50
13707;DHT22;6925;47.816;13.072;2023-04-06T16:07:03;16.80;26.50
13707;DHT22;6925;47.816;13.072;2023-04-06T16:09:30;16.80;26.90
13707;DHT22;6925;47.816;13.072;2023-04-06T16:11:57;16.80;26.50
13707;DHT22;6925;47.816;13.072;2023-04-06T16:14:26;16.80;26.90
13707;DHT22;6925;47.816;13.072;2023-04-06T16:16:53;16.90;27.50
13707;DHT22;6925;47.816;13.072;2023-04-06T16:19:20;17.00;27.00
13707;DHT22;6925;47.816;13.072;2023-04-06T16:21:47;17.10;27.80
13707;DHT22;6925;47.816;13.072;2023-04-06T16:24:16;16.90;26.90
13707;DHT22;6925;47.816;13.072;2023-04-06T16:26:43;16.60;26.30
13707;DHT22;6925;47.816;13.072;2023-04-06T16:29:11;16.40;27.00
13707;DHT22;6925;47.816;13.072;2023-04-06T16:31:38;16.40;26.90
13707;DHT22;6925;47.816;13.072;2023-04-06T16:34:05;16.30;27.00
13707;DHT22;6925;47.816;13.072;2023-04-06T16:36:32;16.20;27.60
13707;DHT22;6925;47.816;13.072;2023-04-06T16:39:00;16.30;28.00
13707;DHT22;6925;47.816;13.072;2023-04-06T16:41:29;16.30;27.50